sensor_id;sensor_type;location;lat;lon;timestamp;P1;durP1;ratioP1;P2;durP2;ratioP2
51499;SDS011;39101;53.478;6.158;2022-09-13T00:00:55;13.63;;;7.97;;
51499;SDS011;39101;53.478;6.158;2022-09-13T00:03:21;11.38;;;7.45;;
51499;SDS011;39101;53.478;6.158;2022-09-13T00:05:47;12.88;;;7.60;;
51499;SDS011;39101;53.478;6.158;2022-09-13T00:08:13;11.63;;;7.22;;
51499;SDS011;39101;53.478;6.158;2022-09-13T00:10:42;9.55;;;7.13;;
51499;SDS011;39101;53.478;6.158;2022-09-13T00:13:09;15.27;;;7.68;;
51499;SDS011;39101;53.478;6.158;2022-09-13T00:15:36;12.38;;;7.35;;
51499;SDS011;39101;53.478;6.158;2022-09-13T00:18:06;10.80;;;7.53;;
51499;SDS011;39101;53.478;6.158;2022-09-13T00:20:31;14.73;;;7.97;;
51499;SDS011;39101;53.478;6.158;2022-09-13T00:22:57;10.82;;;7.93;;
51499;SDS011;39101;53.478;6.158;2022-09-13T00:25:22;11.25;;;7.43;;
51499;SDS011;39101;53.478;6.158;2022-09-13T00:27:48;12.13;;;8.13;;
51499;SDS011;39101;53.478;6.158;2022-09-13T00:30:14;12.60;;;7.70;;
51499;SDS011;39101;53.478;6.158;2022-09-13T00:32:40;13.75;;;8.25;;
51499;SDS011;39101;53.478;6.158;2022-09-13T00:35:06;12.98;;;9.18;;
51499;SDS011;39101;53.478;6.158;2022-09-13T00:37:32;12.80;;;8.38;;
51499;SDS011;39101;53.478;6.158;2022-09-13T00:39:58;12.57;;;8.98;;
51499;SDS011;39101;53.478;6.158;2022-09-13T00:42:26;14.10;;;9.63;;
51499;SDS011;39101;53.478;6.158;2022-09-13T00:45:26;12.65;;;9.55;;
51499;SDS011;39101;53.478;6.158;2022-09-13T00:47:46;14.77;;;9.50;;
51499;SDS011;39101;53.478;6.158;2022-09-13T00:50:24;11.38;;;8.23;;
51499;SDS011;39101;53.478;6.158;2022-09-13T00:53:00;9.98;;;7.57;;
51499;SDS011;39101;53.478;6.158;2022-09-13T00:55:50;10.63;;;9.38;;
51499;SDS011;39101;53.478;6.158;2022-09-13T00:58:27;11.50;;;10.13;;
51499;SDS011;39101;53.478;6.158;2022-09-13T01:00:55;13.32;;;10.30;;
51499;SDS011;39101;53.478;6.158;2022-09-13T01:03:24;13.35;;;11.32;;
51499;SDS011;39101;53.478;6.158;2022-09-13T01:06:11;18.27;;;11.70;;
51499;SDS011;39101;53.478;6.158;2022-09-13T01:08:42;16.80;;;12.77;;
51499;SDS011;39101;53.478;6.158;2022-09-13T01:11:15;15.23;;;12.50;;
51499;SDS011;39101;53.478;6.158;2022-09-13T01:13:51;16.77;;;11.50;;
51499;SDS011;39101;53.478;6.158;2022-09-13T01:16:19;14.10;;;11.98;;
51499;SDS011;39101;53.478;6.158;2022-09-13T01:18:44;15.63;;;12.95;;
51499;SDS011;39101;53.478;6.158;2022-09-13T01:29:32;14.70;;;7.88;;
51499;SDS011;39101;53.478;6.158;2022-09-13T01:37:51;6.72;;;1.35;;
51499;SDS011;39101;53.478;6.158;2022-09-13T01:46:07;9.15;;;2.30;;
51499;SDS011;39101;53.478;6.158;2022-09-13T01:51:37;14.35;;;2.58;;
51499;SDS011;39101;53.478;6.158;2022-09-13T02:05:13;4.55;;;1.27;;
51499;SDS011;39101;53.478;6.158;2022-09-13T02:07:42;6.15;;;1.20;;
51499;SDS011;39101;53.478;6.158;2022-09-13T02:10:16;10.02;;;1.60;;
51499;SDS011;39101;53.478;6.158;2022-09-13T02:12:51;4.70;;;1.10;;
51499;SDS011;39101;53.478;6.158;2022-09-13T02:15:40;5.57;;;1.48;;
51499;SDS011;39101;53.478;6.158;2022-09-13T02:18:10;10.18;;;1.63;;
51499;SDS011;39101;53.478;6.158;2022-09-13T02:20:54;5.68;;;1.23;;
51499;SDS011;39101;53.478;6.158;2022-09-13T02:23:27;8.15;;;1.17;;
51499;SDS011;39101;53.478;6.158;2022-09-13T02:25:58;6.88;;;1.55;;
51499;SDS011;39101;53.478;6.158;2022-09-13T02:28:27;5.88;;;1.52;;
51499;SDS011;39101;53.478;6.158;2022-09-13T02:31:01;3.97;;;1.20;;
51499;SDS011;39101;53.478;6.158;2022-09-13T02:36:06;5.57;;;1.27;;
51499;SDS011;39101;53.478;6.158;2022-09-13T02:38:42;4.35;;;1.10;;
51499;SDS011;39101;53.478;6.158;2022-09-13T02:41:27;4.43;;;1.00;;
51499;SDS011;39101;53.478;6.158;2022-09-13T02:44:16;5.05;;;0.98;;
51499;SDS011;39101;53.478;6.158;2022-09-13T02:49:38;4.18;;;1.23;;
51499;SDS011;39101;53.478;6.158;2022-09-13T02:52:20;3.85;;;0.88;;
51499;SDS011;39101;53.478;6.158;2022-09-13T02:55:20;5.25;;;1.35;;
51499;SDS011;39101;53.478;6.158;2022-09-13T02:57:54;7.28;;;2.00;;
51499;SDS011;39101;53.478;6.158;2022-09-13T03:00:26;5.10;;;0.98;;
51499;SDS011;39101;53.478;6.158;2022-09-13T03:02:53;8.85;;;1.15;;
51499;SDS011;39101;53.478;6.158;2022-09-13T03:05:22;5.55;;;1.23;;
51499;SDS011;39101;53.478;6.158;2022-09-13T03:07:48;4.97;;;1.73;;
51499;SDS011;39101;53.478;6.158;2022-09-13T03:10:15;7.90;;;1.52;;
51499;SDS011;39101;53.478;6.158;2022-09-13T03:26:51;5.72;;;1.08;;
51499;SDS011;39101;53.478;6.158;2022-09-13T03:29:40;5.30;;;1.60;;
51499;SDS011;39101;53.478;6.158;2022-09-13T03:37:46;8.80;;;1.27;;
51499;SDS011;39101;53.478;6.158;2022-09-13T03:40:45;9.65;;;1.45;;
51499;SDS011;39101;53.478;6.158;2022-09-13T03:43:21;5.70;;;1.02;;
51499;SDS011;39101;53.478;6.158;2022-09-13T03:46:09;10.05;;;1.00;;
51499;SDS011;39101;53.478;6.158;2022-09-13T03:48:44;6.82;;;1.23;;
51499;SDS011;39101;53.478;6.158;2022-09-13T03:51:10;4.90;;;1.30;;
51499;SDS011;39101;53.478;6.158;2022-09-13T03:53:37;6.65;;;1.20;;
51499;SDS011;39101;53.478;6.158;2022-09-13T03:56:13;5.88;;;1.23;;
51499;SDS011;39101;53.478;6.158;2022-09-13T03:58:40;6.40;;;1.30;;
51499;SDS011;39101;53.478;6.158;2022-09-13T04:01:06;6.38;;;1.30;;
51499;SDS011;39101;53.478;6.158;2022-09-13T04:03:34;11.18;;;2.00;;
51499;SDS011;39101;53.478;6.158;2022-09-13T04:06:00;8.70;;;1.98;;
51499;SDS011;39101;53.478;6.158;2022-09-13T04:08:26;9.45;;;1.83;;
51499;SDS011;39101;53.478;6.158;2022-09-13T04:10:52;10.68;;;1.73;;
51499;SDS011;39101;53.478;6.158;2022-09-13T04:13:17;11.38;;;2.10;;
51499;SDS011;39101;53.478;6.158;2022-09-13T04:15:45;16.95;;;1.92;;
51499;SDS011;39101;53.478;6.158;2022-09-13T04:18:10;12.15;;;1.63;;
51499;SDS011;39101;53.478;6.158;2022-09-13T04:20:36;11.32;;;2.00;;
51499;SDS011;39101;53.478;6.158;2022-09-13T04:23:02;10.07;;;1.88;;
51499;SDS011;39101;53.478;6.158;2022-09-13T04:25:28;7.82;;;1.65;;
51499;SDS011;39101;53.478;6.158;2022-09-13T04:27:54;10.18;;;2.08;;
51499;SDS011;39101;53.478;6.158;2022-09-13T04:30:20;6.78;;;1.67;;
51499;SDS011;39101;53.478;6.158;2022-09-13T04:32:46;8.57;;;1.70;;
51499;SDS011;39101;53.478;6.158;2022-09-13T04:35:11;8.35;;;1.30;;
51499;SDS011;39101;53.478;6.158;2022-09-13T04:37:39;14.57;;;1.90;;
51499;SDS011;39101;53.478;6.158;2022-09-13T04:40:05;9.75;;;2.08;;
51499;SDS011;39101;53.478;6.158;2022-09-13T04:42:32;7.78;;;1.52;;
51499;SDS011;39101;53.478;6.158;2022-09-13T04:44:57;6.03;;;1.85;;
51499;SDS011;39101;53.478;6.158;2022-09-13T04:47:23;7.13;;;2.13;;
51499;SDS011;39101;53.478;6.158;2022-09-13T04:49:49;8.43;;;1.75;;
51499;SDS011;39101;53.478;6.158;2022-09-13T04:52:15;7.97;;;1.77;;
51499;SDS011;39101;53.478;6.158;2022-09-13T04:54:40;7.18;;;1.52;;
51499;SDS011;39101;53.478;6.158;2022-09-13T04:57:06;5.82;;;1.75;;
51499;SDS011;39101;53.478;6.158;2022-09-13T04:59:32;7.60;;;1.20;;
51499;SDS011;39101;53.478;6.158;2022-09-13T05:01:58;3.88;;;1.05;;
51499;SDS011;39101;53.478;6.158;2022-09-13T05:04:23;5.13;;;1.10;;
51499;SDS011;39101;53.478;6.158;2022-09-13T05:06:49;6.88;;;1.48;;
51499;SDS011;39101;53.478;6.158;2022-09-13T05:09:15;4.05;;;1.00;;
51499;SDS011;39101;53.478;6.158;2022-09-13T05:11:41;5.88;;;1.08;;
51499;SDS011;39101;53.478;6.158;2022-09-13T05:14:10;6.45;;;1.30;;
51499;SDS011;39101;53.478;6.158;2022-09-13T05:16:36;8.63;;;1.10;;
51499;SDS011;39101;53.478;6.158;2022-09-13T05:19:02;8.05;;;1.38;;
51499;SDS011;39101;53.478;6.158;2022-09-13T05:21:28;10.10;;;1.10;;
51499;SDS011;39101;53.478;6.158;2022-09-13T05:23:54;4.85;;;0.90;;
51499;SDS011;39101;53.478;6.158;2022-09-13T05:26:21;4.30;;;1.00;;
51499;SDS011;39101;53.478;6.158;2022-09-13T05:28:48;4.82;;;1.33;;
51499;SDS011;39101;53.478;6.158;2022-09-13T05:31:15;4.07;;;1.27;;
51499;SDS011;39101;53.478;6.158;2022-09-13T05:33:41;7.45;;;1.20;;
51499;SDS011;39101;53.478;6.158;2022-09-13T05:36:07;10.13;;;1.77;;
51499;SDS011;39101;53.478;6.158;2022-09-13T05:38:32;6.28;;;1.27;;
51499;SDS011;39101;53.478;6.158;2022-09-13T05:40:59;7.22;;;1.17;;
51499;SDS011;39101;53.478;6.158;2022-09-13T05:43:27;5.32;;;1.23;;
51499;SDS011;39101;53.478;6.158;2022-09-13T05:46:04;6.45;;;1.00;;
51499;SDS011;39101;53.478;6.158;2022-09-13T05:48:32;3.60;;;0.82;;
51499;SDS011;39101;53.478;6.158;2022-09-13T05:53:42;9.75;;;1.17;;
51499;SDS011;39101;53.478;6.158;2022-09-13T05:56:09;8.38;;;1.00;;
51499;SDS011;39101;53.478;6.158;2022-09-13T05:58:37;5.93;;;1.17;;
51499;SDS011;39101;53.478;6.158;2022-09-13T06:01:04;3.05;;;1.02;;
51499;SDS011;39101;53.478;6.158;2022-09-13T06:03:29;4.47;;;0.88;;
51499;SDS011;39101;53.478;6.158;2022-09-13T06:05:55;2.75;;;1.00;;
51499;SDS011;39101;53.478;6.158;2022-09-13T06:08:26;3.25;;;0.93;;
51499;SDS011;39101;53.478;6.158;2022-09-13T06:10:54;5.00;;;1.20;;
51499;SDS011;39101;53.478;6.158;2022-09-13T06:13:21;6.68;;;1.20;;
51499;SDS011;39101;53.478;6.158;2022-09-13T06:15:47;10.05;;;1.88;;
51499;SDS011;39101;53.478;6.158;2022-09-13T06:18:13;10.00;;;1.63;;
51499;SDS011;39101;53.478;6.158;2022-09-13T06:20:39;7.95;;;1.73;;
51499;SDS011;39101;53.478;6.158;2022-09-13T06:23:04;8.75;;;1.90;;
51499;SDS011;39101;53.478;6.158;2022-09-13T06:25:30;9.50;;;1.25;;
51499;SDS011;39101;53.478;6.158;2022-09-13T06:27:56;7.18;;;1.83;;
51499;SDS011;39101;53.478;6.158;2022-09-13T06:30:22;11.93;;;2.97;;
51499;SDS011;39101;53.478;6.158;2022-09-13T06:32:48;6.72;;;1.40;;
51499;SDS011;39101;53.478;6.158;2022-09-13T06:35:13;6.20;;;1.20;;
51499;SDS011;39101;53.478;6.158;2022-09-13T06:37:40;6.38;;;1.48;;
51499;SDS011;39101;53.478;6.158;2022-09-13T06:40:06;8.90;;;1.75;;
51499;SDS011;39101;53.478;6.158;2022-09-13T06:42:34;7.55;;;1.90;;
51499;SDS011;39101;53.478;6.158;2022-09-13T06:45:00;5.35;;;1.08;;
51499;SDS011;39101;53.478;6.158;2022-09-13T06:47:26;6.03;;;1.05;;
51499;SDS011;39101;53.478;6.158;2022-09-13T06:49:51;3.65;;;1.00;;
51499;SDS011;39101;53.478;6.158;2022-09-13T06:52:17;8.95;;;1.50;;
51499;SDS011;39101;53.478;6.158;2022-09-13T06:54:43;7.43;;;0.93;;
51499;SDS011;39101;53.478;6.158;2022-09-13T06:57:08;6.25;;;1.17;;
51499;SDS011;39101;53.478;6.158;2022-09-13T06:59:34;7.88;;;1.27;;
51499;SDS011;39101;53.478;6.158;2022-09-13T07:02:00;8.95;;;1.58;;
51499;SDS011;39101;53.478;6.158;2022-09-13T07:04:25;7.45;;;1.08;;
51499;SDS011;39101;53.478;6.158;2022-09-13T07:06:55;9.88;;;1.30;;
51499;SDS011;39101;53.478;6.158;2022-09-13T07:09:22;11.25;;;2.03;;
51499;SDS011;39101;53.478;6.158;2022-09-13T07:11:49;9.93;;;1.98;;
51499;SDS011;39101;53.478;6.158;2022-09-13T07:14:17;10.18;;;1.60;;
51499;SDS011;39101;53.478;6.158;2022-09-13T07:16:44;7.53;;;1.08;;
51499;SDS011;39101;53.478;6.158;2022-09-13T07:19:15;5.90;;;1.92;;
51499;SDS011;39101;53.478;6.158;2022-09-13T07:21:43;13.27;;;1.30;;
51499;SDS011;39101;53.478;6.158;2022-09-13T07:24:09;8.00;;;1.77;;
51499;SDS011;39101;53.478;6.158;2022-09-13T07:26:35;7.50;;;1.63;;
51499;SDS011;39101;53.478;6.158;2022-09-13T07:29:02;4.85;;;1.50;;
51499;SDS011;39101;53.478;6.158;2022-09-13T07:31:33;5.00;;;1.25;;
51499;SDS011;39101;53.478;6.158;2022-09-13T07:34:02;7.60;;;0.98;;
51499;SDS011;39101;53.478;6.158;2022-09-13T07:36:30;8.75;;;1.20;;
51499;SDS011;39101;53.478;6.158;2022-09-13T07:38:57;7.55;;;1.00;;
51499;SDS011;39101;53.478;6.158;2022-09-13T07:41:24;8.70;;;1.95;;
51499;SDS011;39101;53.478;6.158;2022-09-13T07:43:50;7.75;;;1.17;;
51499;SDS011;39101;53.478;6.158;2022-09-13T07:46:20;6.00;;;1.10;;
51499;SDS011;39101;53.478;6.158;2022-09-13T07:48:48;8.50;;;1.48;;
51499;SDS011;39101;53.478;6.158;2022-09-13T07:51:17;6.22;;;1.42;;
51499;SDS011;39101;53.478;6.158;2022-09-13T07:53:45;8.32;;;1.48;;
51499;SDS011;39101;53.478;6.158;2022-09-13T07:56:16;9.98;;;1.25;;
51499;SDS011;39101;53.478;6.158;2022-09-13T07:58:44;3.35;;;0.80;;
51499;SDS011;39101;53.478;6.158;2022-09-13T08:01:16;7.95;;;1.48;;
51499;SDS011;39101;53.478;6.158;2022-09-13T08:03:49;8.98;;;1.42;;
51499;SDS011;39101;53.478;6.158;2022-09-13T08:06:20;5.43;;;0.93;;
51499;SDS011;39101;53.478;6.158;2022-09-13T08:08:46;9.07;;;1.75;;
51499;SDS011;39101;53.478;6.158;2022-09-13T08:11:15;9.18;;;2.03;;
51499;SDS011;39101;53.478;6.158;2022-09-13T08:13:42;3.75;;;1.02;;
51499;SDS011;39101;53.478;6.158;2022-09-13T08:16:09;8.05;;;1.17;;
51499;SDS011;39101;53.478;6.158;2022-09-13T08:18:34;7.88;;;1.35;;
51499;SDS011;39101;53.478;6.158;2022-09-13T08:21:00;6.32;;;1.00;;
51499;SDS011;39101;53.478;6.158;2022-09-13T08:23:26;6.30;;;1.42;;
51499;SDS011;39101;53.478;6.158;2022-09-13T08:25:52;8.52;;;1.65;;
51499;SDS011;39101;53.478;6.158;2022-09-13T08:28:18;5.07;;;1.10;;
51499;SDS011;39101;53.478;6.158;2022-09-13T08:30:46;3.28;;;1.20;;
51499;SDS011;39101;53.478;6.158;2022-09-13T08:33:12;4.63;;;1.35;;
51499;SDS011;39101;53.478;6.158;2022-09-13T08:35:38;4.57;;;0.80;;
51499;SDS011;39101;53.478;6.158;2022-09-13T08:38:05;6.90;;;1.40;;
51499;SDS011;39101;53.478;6.158;2022-09-13T08:40:32;7.78;;;1.70;;
51499;SDS011;39101;53.478;6.158;2022-09-13T08:45:59;4.43;;;0.90;;
51499;SDS011;39101;53.478;6.158;2022-09-13T08:48:31;6.38;;;1.45;;
51499;SDS011;39101;53.478;6.158;2022-09-13T08:51:04;6.68;;;1.52;;
51499;SDS011;39101;53.478;6.158;2022-09-13T08:53:34;5.05;;;1.00;;
51499;SDS011;39101;53.478;6.158;2022-09-13T08:56:22;8.60;;;1.17;;
51499;SDS011;39101;53.478;6.158;2022-09-13T09:06:40;4.63;;;1.00;;
51499;SDS011;39101;53.478;6.158;2022-09-13T09:09:07;7.20;;;1.35;;
51499;SDS011;39101;53.478;6.158;2022-09-13T09:11:41;5.85;;;1.02;;
51499;SDS011;39101;53.478;6.158;2022-09-13T09:14:30;7.88;;;1.27;;
51499;SDS011;39101;53.478;6.158;2022-09-13T09:16:58;5.63;;;1.35;;
51499;SDS011;39101;53.478;6.158;2022-09-13T09:19:47;5.75;;;1.05;;
51499;SDS011;39101;53.478;6.158;2022-09-13T09:22:19;6.25;;;1.63;;
51499;SDS011;39101;53.478;6.158;2022-09-13T09:24:48;6.80;;;1.15;;
51499;SDS011;39101;53.478;6.158;2022-09-13T09:27:18;4.15;;;1.08;;
51499;SDS011;39101;53.478;6.158;2022-09-13T09:29:48;6.10;;;1.10;;
51499;SDS011;39101;53.478;6.158;2022-09-13T09:40:55;8.55;;;1.52;;
51499;SDS011;39101;53.478;6.158;2022-09-13T09:43:24;7.82;;;1.13;;
51499;SDS011;39101;53.478;6.158;2022-09-13T09:45:57;6.65;;;1.50;;
51499;SDS011;39101;53.478;6.158;2022-09-13T09:50:55;8.70;;;2.00;;
51499;SDS011;39101;53.478;6.158;2022-09-13T09:58:40;6.53;;;1.15;;
51499;SDS011;39101;53.478;6.158;2022-09-13T10:06:39;7.13;;;1.30;;
51499;SDS011;39101;53.478;6.158;2022-09-13T10:09:14;6.95;;;2.13;;
51499;SDS011;39101;53.478;6.158;2022-09-13T10:11:45;4.55;;;1.13;;
51499;SDS011;39101;53.478;6.158;2022-09-13T10:17:26;4.20;;;0.88;;
51499;SDS011;39101;53.478;6.158;2022-09-13T10:22:22;6.53;;;1.30;;
51499;SDS011;39101;53.478;6.158;2022-09-13T10:24:49;6.72;;;1.48;;
51499;SDS011;39101;53.478;6.158;2022-09-13T10:30:02;8.20;;;1.42;;
51499;SDS011;39101;53.478;6.158;2022-09-13T10:32:30;9.77;;;1.33;;
51499;SDS011;39101;53.478;6.158;2022-09-13T10:35:07;10.23;;;1.58;;
51499;SDS011;39101;53.478;6.158;2022-09-13T10:37:41;11.43;;;1.70;;
51499;SDS011;39101;53.478;6.158;2022-09-13T10:40:17;8.13;;;1.50;;
51499;SDS011;39101;53.478;6.158;2022-09-13T10:42:55;11.27;;;1.52;;
51499;SDS011;39101;53.478;6.158;2022-09-13T10:45:24;9.88;;;1.55;;
51499;SDS011;39101;53.478;6.158;2022-09-13T10:47:52;6.68;;;1.33;;
51499;SDS011;39101;53.478;6.158;2022-09-13T10:50:27;10.10;;;1.35;;
51499;SDS011;39101;53.478;6.158;2022-09-13T10:52:56;10.93;;;1.67;;
51499;SDS011;39101;53.478;6.158;2022-09-13T10:55:35;9.30;;;1.48;;
51499;SDS011;39101;53.478;6.158;2022-09-13T11:08:44;12.82;;;2.22;;
51499;SDS011;39101;53.478;6.158;2022-09-13T11:14:15;10.38;;;2.20;;
51499;SDS011;39101;53.478;6.158;2022-09-13T11:27:59;7.10;;;1.30;;
51499;SDS011;39101;53.478;6.158;2022-09-13T11:36:37;6.47;;;1.55;;
51499;SDS011;39101;53.478;6.158;2022-09-13T11:39:37;9.20;;;1.60;;
51499;SDS011;39101;53.478;6.158;2022-09-13T11:42:42;10.15;;;2.65;;
51499;SDS011;39101;53.478;6.158;2022-09-13T11:45:28;7.43;;;1.50;;
51499;SDS011;39101;53.478;6.158;2022-09-13T11:57:08;7.13;;;1.50;;
51499;SDS011;39101;53.478;6.158;2022-09-13T12:00:02;8.82;;;1.83;;
51499;SDS011;39101;53.478;6.158;2022-09-13T12:02:28;6.82;;;1.70;;
51499;SDS011;39101;53.478;6.158;2022-09-13T12:05:17;6.63;;;1.75;;
51499;SDS011;39101;53.478;6.158;2022-09-13T12:07:54;9.63;;;1.73;;
51499;SDS011;39101;53.478;6.158;2022-09-13T12:13:12;12.20;;;1.58;;
51499;SDS011;39101;53.478;6.158;2022-09-13T12:15:42;9.30;;;1.83;;
51499;SDS011;39101;53.478;6.158;2022-09-13T12:18:12;11.25;;;1.40;;
51499;SDS011;39101;53.478;6.158;2022-09-13T12:20:52;7.18;;;1.40;;
51499;SDS011;39101;53.478;6.158;2022-09-13T12:23:27;6.45;;;1.30;;
51499;SDS011;39101;53.478;6.158;2022-09-13T12:25:57;6.03;;;1.48;;
51499;SDS011;39101;53.478;6.158;2022-09-13T12:31:04;10.57;;;2.45;;
51499;SDS011;39101;53.478;6.158;2022-09-13T12:33:40;11.60;;;1.60;;
51499;SDS011;39101;53.478;6.158;2022-09-13T12:39:00;8.23;;;1.17;;
51499;SDS011;39101;53.478;6.158;2022-09-13T12:47:15;6.78;;;1.52;;
51499;SDS011;39101;53.478;6.158;2022-09-13T12:53:07;8.25;;;1.45;;
51499;SDS011;39101;53.478;6.158;2022-09-13T12:55:59;7.43;;;1.90;;
51499;SDS011;39101;53.478;6.158;2022-09-13T13:01:20;8.25;;;1.75;;
51499;SDS011;39101;53.478;6.158;2022-09-13T13:03:52;6.10;;;0.80;;
51499;SDS011;39101;53.478;6.158;2022-09-13T13:06:45;5.68;;;1.00;;
51499;SDS011;39101;53.478;6.158;2022-09-13T13:09:21;2.80;;;1.05;;
51499;SDS011;39101;53.478;6.158;2022-09-13T13:12:05;8.93;;;1.00;;
51499;SDS011;39101;53.478;6.158;2022-09-13T13:20:37;5.07;;;0.93;;
51499;SDS011;39101;53.478;6.158;2022-09-13T13:23:15;6.78;;;1.17;;
51499;SDS011;39101;53.478;6.158;2022-09-13T13:59:50;8.18;;;1.23;;
51499;SDS011;39101;53.478;6.158;2022-09-13T14:02:30;9.80;;;1.48;;
51499;SDS011;39101;53.478;6.158;2022-09-13T14:05:06;3.38;;;0.68;;
51499;SDS011;39101;53.478;6.158;2022-09-13T14:22:03;9.23;;;1.20;;
51499;SDS011;39101;53.478;6.158;2022-09-13T14:24:37;4.57;;;0.90;;
51499;SDS011;39101;53.478;6.158;2022-09-13T14:27:09;5.18;;;1.00;;
51499;SDS011;39101;53.478;6.158;2022-09-13T14:29:44;8.30;;;1.33;;
51499;SDS011;39101;53.478;6.158;2022-09-13T14:32:17;5.38;;;1.08;;
51499;SDS011;39101;53.478;6.158;2022-09-13T14:34:52;10.20;;;1.88;;
51499;SDS011;39101;53.478;6.158;2022-09-13T14:37:25;6.53;;;1.42;;
51499;SDS011;39101;53.478;6.158;2022-09-13T14:39:57;5.90;;;1.60;;
51499;SDS011;39101;53.478;6.158;2022-09-13T14:42:26;9.35;;;1.27;;
51499;SDS011;39101;53.478;6.158;2022-09-13T14:45:10;5.90;;;0.98;;
51499;SDS011;39101;53.478;6.158;2022-09-13T14:47:44;4.80;;;1.10;;
51499;SDS011;39101;53.478;6.158;2022-09-13T14:50:17;7.22;;;1.20;;
51499;SDS011;39101;53.478;6.158;2022-09-13T14:52:52;3.10;;;0.77;;
51499;SDS011;39101;53.478;6.158;2022-09-13T14:55:23;11.13;;;1.70;;
51499;SDS011;39101;53.478;6.158;2022-09-13T14:58:14;9.40;;;1.50;;
51499;SDS011;39101;53.478;6.158;2022-09-13T15:01:18;5.70;;;1.02;;
51499;SDS011;39101;53.478;6.158;2022-09-13T15:03:54;5.40;;;0.88;;
51499;SDS011;39101;53.478;6.158;2022-09-13T15:06:28;4.03;;;1.02;;
51499;SDS011;39101;53.478;6.158;2022-09-13T15:09:00;5.68;;;1.08;;
51499;SDS011;39101;53.478;6.158;2022-09-13T15:11:39;5.07;;;1.08;;
51499;SDS011;39101;53.478;6.158;2022-09-13T15:16:57;5.82;;;0.80;;
51499;SDS011;39101;53.478;6.158;2022-09-13T15:19:37;7.13;;;0.80;;
51499;SDS011;39101;53.478;6.158;2022-09-13T15:24:41;5.03;;;0.82;;
51499;SDS011;39101;53.478;6.158;2022-09-13T15:27:16;7.75;;;0.70;;
51499;SDS011;39101;53.478;6.158;2022-09-13T15:29:49;5.57;;;1.02;;
51499;SDS011;39101;53.478;6.158;2022-09-13T15:35:17;6.63;;;0.88;;
51499;SDS011;39101;53.478;6.158;2022-09-13T15:37:56;3.15;;;0.60;;
51499;SDS011;39101;53.478;6.158;2022-09-13T15:40:24;2.83;;;0.60;;
51499;SDS011;39101;53.478;6.158;2022-09-13T15:42:52;2.95;;;0.73;;
51499;SDS011;39101;53.478;6.158;2022-09-13T15:45:19;6.20;;;0.98;;
51499;SDS011;39101;53.478;6.158;2022-09-13T15:47:50;2.38;;;0.50;;
51499;SDS011;39101;53.478;6.158;2022-09-13T15:50:26;4.10;;;0.50;;
51499;SDS011;39101;53.478;6.158;2022-09-13T15:52:55;5.25;;;0.70;;
51499;SDS011;39101;53.478;6.158;2022-09-13T15:55:24;4.20;;;1.70;;
51499;SDS011;39101;53.478;6.158;2022-09-13T15:57:51;5.03;;;0.95;;
51499;SDS011;39101;53.478;6.158;2022-09-13T16:00:21;4.80;;;0.75;;
51499;SDS011;39101;53.478;6.158;2022-09-13T16:02:49;3.38;;;0.90;;
51499;SDS011;39101;53.478;6.158;2022-09-13T16:05:16;6.05;;;0.75;;
51499;SDS011;39101;53.478;6.158;2022-09-13T16:07:42;4.10;;;1.08;;
51499;SDS011;39101;53.478;6.158;2022-09-13T16:10:13;4.93;;;0.80;;
51499;SDS011;39101;53.478;6.158;2022-09-13T16:12:46;4.38;;;1.17;;
51499;SDS011;39101;53.478;6.158;2022-09-13T16:15:12;4.20;;;0.70;;
51499;SDS011;39101;53.478;6.158;2022-09-13T16:17:38;2.40;;;0.52;;
51499;SDS011;39101;53.478;6.158;2022-09-13T16:20:05;7.40;;;1.15;;
51499;SDS011;39101;53.478;6.158;2022-09-13T16:22:35;4.38;;;1.30;;
51499;SDS011;39101;53.478;6.158;2022-09-13T16:25:01;4.47;;;0.93;;
51499;SDS011;39101;53.478;6.158;2022-09-13T16:27:26;8.55;;;1.25;;
51499;SDS011;39101;53.478;6.158;2022-09-13T16:29:52;5.30;;;0.77;;
51499;SDS011;39101;53.478;6.158;2022-09-13T16:32:19;5.57;;;1.40;;
51499;SDS011;39101;53.478;6.158;2022-09-13T16:34:45;6.45;;;1.35;;
51499;SDS011;39101;53.478;6.158;2022-09-13T16:37:15;4.82;;;0.80;;
51499;SDS011;39101;53.478;6.158;2022-09-13T16:39:41;6.00;;;0.77;;
51499;SDS011;39101;53.478;6.158;2022-09-13T16:42:07;6.15;;;1.00;;
51499;SDS011;39101;53.478;6.158;2022-09-13T16:44:33;7.13;;;0.80;;
51499;SDS011;39101;53.478;6.158;2022-09-13T16:46:59;4.78;;;1.50;;
51499;SDS011;39101;53.478;6.158;2022-09-13T16:49:24;7.97;;;0.90;;
51499;SDS011;39101;53.478;6.158;2022-09-13T16:51:50;6.38;;;1.00;;
51499;SDS011;39101;53.478;6.158;2022-09-13T16:54:16;8.27;;;1.30;;
51499;SDS011;39101;53.478;6.158;2022-09-13T16:56:41;6.75;;;0.93;;
51499;SDS011;39101;53.478;6.158;2022-09-13T16:59:07;4.03;;;0.73;;
51499;SDS011;39101;53.478;6.158;2022-09-13T17:01:33;5.28;;;1.10;;
51499;SDS011;39101;53.478;6.158;2022-09-13T17:03:59;5.97;;;1.08;;
51499;SDS011;39101;53.478;6.158;2022-09-13T17:06:25;3.58;;;0.70;;
51499;SDS011;39101;53.478;6.158;2022-09-13T17:08:55;3.83;;;0.85;;
51499;SDS011;39101;53.478;6.158;2022-09-13T17:11:27;5.43;;;1.05;;
51499;SDS011;39101;53.478;6.158;2022-09-13T17:13:54;8.35;;;1.15;;
51499;SDS011;39101;53.478;6.158;2022-09-13T17:18:49;5.28;;;0.82;;
51499;SDS011;39101;53.478;6.158;2022-09-13T17:21:15;8.05;;;0.88;;
51499;SDS011;39101;53.478;6.158;2022-09-13T17:23:41;4.22;;;0.60;;
51499;SDS011;39101;53.478;6.158;2022-09-13T17:26:07;4.13;;;0.77;;
51499;SDS011;39101;53.478;6.158;2022-09-13T17:28:32;2.78;;;0.73;;
51499;SDS011;39101;53.478;6.158;2022-09-13T17:31:00;5.03;;;2.20;;
51499;SDS011;39101;53.478;6.158;2022-09-13T17:33:26;7.80;;;1.85;;
51499;SDS011;39101;53.478;6.158;2022-09-13T17:36:02;7.05;;;1.88;;
51499;SDS011;39101;53.478;6.158;2022-09-13T17:38:32;7.75;;;3.33;;
51499;SDS011;39101;53.478;6.158;2022-09-13T17:41:02;7.77;;;2.93;;
51499;SDS011;39101;53.478;6.158;2022-09-13T17:43:30;3.28;;;1.10;;
51499;SDS011;39101;53.478;6.158;2022-09-13T17:45:55;5.50;;;1.23;;
51499;SDS011;39101;53.478;6.158;2022-09-13T17:48:21;6.93;;;2.00;;
51499;SDS011;39101;53.478;6.158;2022-09-13T17:50:47;8.52;;;1.30;;
51499;SDS011;39101;53.478;6.158;2022-09-13T17:53:13;4.25;;;1.50;;
51499;SDS011;39101;53.478;6.158;2022-09-13T17:55:45;6.68;;;1.75;;
51499;SDS011;39101;53.478;6.158;2022-09-13T17:58:14;6.00;;;2.85;;
51499;SDS011;39101;53.478;6.158;2022-09-13T18:00:41;7.60;;;4.38;;
51499;SDS011;39101;53.478;6.158;2022-09-13T18:03:07;7.22;;;1.50;;
51499;SDS011;39101;53.478;6.158;2022-09-13T18:05:33;3.45;;;0.93;;
51499;SDS011;39101;53.478;6.158;2022-09-13T18:07:58;3.92;;;0.75;;
51499;SDS011;39101;53.478;6.158;2022-09-13T18:10:24;4.00;;;1.52;;
51499;SDS011;39101;53.478;6.158;2022-09-13T18:12:50;2.88;;;0.50;;
51499;SDS011;39101;53.478;6.158;2022-09-13T18:15:16;5.97;;;1.77;;
51499;SDS011;39101;53.478;6.158;2022-09-13T18:17:42;4.85;;;0.98;;
51499;SDS011;39101;53.478;6.158;2022-09-13T18:20:07;7.97;;;0.70;;
51499;SDS011;39101;53.478;6.158;2022-09-13T18:22:33;2.13;;;0.50;;
51499;SDS011;39101;53.478;6.158;2022-09-13T18:24:59;5.55;;;0.90;;
51499;SDS011;39101;53.478;6.158;2022-09-13T18:27:25;6.65;;;1.00;;
51499;SDS011;39101;53.478;6.158;2022-09-13T18:29:50;5.82;;;0.80;;
51499;SDS011;39101;53.478;6.158;2022-09-13T18:32:16;3.75;;;1.10;;
51499;SDS011;39101;53.478;6.158;2022-09-13T18:34:42;4.78;;;1.50;;
51499;SDS011;39101;53.478;6.158;2022-09-13T18:37:08;4.47;;;1.10;;
51499;SDS011;39101;53.478;6.158;2022-09-13T18:39:34;5.30;;;1.70;;
51499;SDS011;39101;53.478;6.158;2022-09-13T18:41:59;4.93;;;1.70;;
51499;SDS011;39101;53.478;6.158;2022-09-13T18:44:25;7.00;;;3.10;;
51499;SDS011;39101;53.478;6.158;2022-09-13T18:46:54;5.38;;;1.70;;
51499;SDS011;39101;53.478;6.158;2022-09-13T18:49:20;5.95;;;1.33;;
51499;SDS011;39101;53.478;6.158;2022-09-13T18:51:46;4.03;;;1.20;;